Time;durP1;ratioP1;P1;durP2;ratioP2;P2;SDS_P1;SDS_P2;PMS_P1;PMS_P2;Temp;Humidity;BMP_temperature;BMP_pressure;BME280_temperature;BME280_humidity;BME280_pressure;Samples;Min_cycle;Max_cycle;Signal;HPM_P1;HPM_P2
2021/11/29 00:02:15;;;;;;;22.40;16.48;;;;;;;-0.69;100.00;96578.50;10395899;28;20038;-76
2021/11/29 00:07:18;;;;;;;24.73;16.58;;;;;;;-0.67;100.00;96587.13;10395987;28;20151;-76
2021/11/29 00:12:22;;;;;;;23.35;15.57;;;;;;;-0.65;100.00;96582.53;10374707;28;20579;-76
2021/11/29 00:17:25;;;;;;;25.45;17.63;;;;;;;-0.65;100.00;96595.75;10395263;28;20041;-76
2021/11/29 00:22:28;;;;;;;24.27;16.67;;;;;;;-0.63;100.00;96607.03;10380442;28;20060;-77
2021/11/29 00:27:33;;;;;;;28.08;17.30;;;;;;;-0.59;100.00;96609.41;10396820;28;20073;-76
2021/11/29 00:32:36;;;;;;;28.77;17.77;;;;;;;-0.56;100.00;96609.97;10395309;28;20052;-76
2021/11/29 00:37:39;;;;;;;26.02;17.52;;;;;;;-0.53;100.00;96619.47;10406658;28;20053;-76
2021/11/29 00:42:44;;;;;;;28.55;18.45;;;;;;;-0.50;100.00;96616.50;10437323;28;20053;-76
2021/11/29 00:47:47;;;;;;;23.33;16.70;;;;;;;-0.48;100.00;96623.38;10414882;28;20040;-76
2021/11/29 00:52:50;;;;;;;28.42;17.60;;;;;;;-0.45;100.00;96614.31;10398841;28;20041;-76
2021/11/29 00:57:54;;;;;;;28.00;18.45;;;;;;;-0.46;100.00;96623.22;10405206;28;20048;-76
2021/11/29 01:02:58;;;;;;;21.75;15.95;;;;;;;-0.45;100.00;96624.88;10400492;28;20109;-76
2021/11/29 01:08:01;;;;;;;25.90;17.52;;;;;;;-0.45;100.00;96624.88;10398288;28;20124;-77
2021/11/29 01:13:05;;;;;;;25.45;17.63;;;;;;;-0.45;100.00;96635.47;10401869;28;20044;-76
2021/11/29 01:18:11;;;;;;;26.42;16.67;;;;;;;-0.43;100.00;96641.47;10396835;28;20573;-76
2021/11/29 01:23:15;;;;;;;25.63;16.60;;;;;;;-0.40;100.00;96649.09;10404696;28;20096;-80
2021/11/29 01:28:21;;;;;;;24.10;16.33;;;;;;;-0.38;100.00;96655.09;10403981;28;20512;-77
2021/11/29 01:33:24;;;;;;;22.95;15.95;;;;;;;-0.36;100.00;96649.69;10386022;28;20044;-77
2021/11/29 01:38:27;;;;;;;20.45;14.50;;;;;;;-0.35;100.00;96646.91;10399011;28;20059;-75
2021/11/29 01:43:31;;;;;;;23.05;15.52;;;;;;;-0.32;100.00;96657.22;10395565;28;20065;-77
2021/11/29 01:48:34;;;;;;;21.00;15.02;;;;;;;-0.30;100.00;96656.25;10396640;28;20049;-76
2021/11/29 01:53:38;;;;;;;25.85;15.43;;;;;;;-0.30;100.00;96649.13;10388605;28;20123;-82
2021/11/29 01:58:42;;;;;;;24.08;15.63;;;;;;;-0.26;100.00;96653.19;10388837;28;20083;-80
2021/11/29 02:03:48;;;;;;;21.20;14.63;;;;;;;-0.29;100.00;96647.34;10389604;28;20052;-80
2021/11/29 02:08:51;;;;;;;23.27;16.23;;;;;;;-0.29;100.00;96656.09;10414981;28;20068;-80
2021/11/29 02:13:59;;;;;;;24.45;15.95;;;;;;;-0.26;100.00;96657.63;10408616;28;20049;-78
2021/11/29 02:19:05;;;;;;;26.77;17.08;;;;;;;-0.25;100.00;96657.50;10402029;28;20076;-78
2021/11/29 02:24:09;;;;;;;25.88;16.30;;;;;;;-0.26;100.00;96654.97;10402670;28;20051;-78
2021/11/29 02:29:15;;;;;;;25.83;16.15;;;;;;;-0.23;100.00;96652.06;10405984;28;20472;-81
2021/11/29 02:34:20;;;;;;;26.35;17.52;;;;;;;-0.17;100.00;96662.09;10405814;28;20041;-80
2021/11/29 02:39:25;;;;;;;28.73;18.83;;;;;;;-0.13;100.00;96666.16;10400866;28;20055;-80
2021/11/29 02:44:28;;;;;;;29.73;18.90;;;;;;;-0.08;100.00;96673.66;10412144;28;20050;-78
2021/11/29 02:49:31;;;;;;;30.95;19.77;;;;;;;-0.06;100.00;96677.84;10406696;28;20064;-79
2021/11/29 02:54:39;;;;;;;27.20;18.67;;;;;;;-0.08;100.00;96674.53;10381344;28;20056;-78
2021/11/29 02:59:42;;;;;;;29.15;18.20;;;;;;;-0.13;100.00;96676.72;10398639;28;20091;-77
2021/11/29 03:04:46;;;;;;;27.75;19.70;;;;;;;-0.13;100.00;96671.44;10400673;28;20124;-79
2021/11/29 03:09:51;;;;;;;30.35;19.42;;;;;;;-0.06;100.00;96679.66;10403590;28;20129;-78
2021/11/29 03:14:54;;;;;;;26.92;18.98;;;;;;;-0.03;100.00;96687.34;10387358;28;20402;-79
2021/11/29 03:19:56;;;;;;;28.20;18.95;;;;;;;0.06;100.00;96696.28;10439735;28;20056;-77
2021/11/29 03:25:01;;;;;;;31.25;19.20;;;;;;;0.14;100.00;96696.41;10407099;28;20509;-78
2021/11/29 03:30:05;;;;;;;35.08;19.98;;;;;;;0.13;100.00;96697.38;10392953;28;20045;-78
2021/11/29 03:35:10;;;;;;;30.60;19.38;;;;;;;0.22;100.00;96691.25;10400579;28;20037;-78
2021/11/29 03:40:15;;;;;;;27.27;18.50;;;;;;;0.22;100.00;96691.25;10372912;28;20054;-78
2021/11/29 03:45:18;;;;;;;27.00;18.27;;;;;;;0.29;100.00;96696.81;10360514;28;20771;-78
2021/11/29 03:50:20;;;;;;;26.52;18.58;;;;;;;0.24;100.00;96699.91;10397071;28;20725;-78
2021/11/29 03:55:25;;;;;;;28.35;18.95;;;;;;;0.29;100.00;96697.66;10400730;28;20042;-78
2021/11/29 04:00:28;;;;;;;27.60;18.52;;;;;;;0.37;100.00;96702.25;10400510;28;20054;-78
2021/11/29 04:05:31;;;;;;;27.77;19.98;;;;;;;0.35;100.00;96706.03;10398722;28;20049;-78
2021/11/29 04:10:36;;;;;;;33.10;20.88;;;;;;;0.41;100.00;96702.84;10416960;28;20073;-78
2021/11/29 04:15:39;;;;;;;32.72;20.38;;;;;;;0.45;100.00;96706.84;10403052;28;20055;-78
2021/11/29 04:20:42;;;;;;;32.33;20.27;;;;;;;0.43;100.00;96704.38;10396644;28;20069;-78
2021/11/29 04:25:50;;;;;;;31.02;20.40;;;;;;;0.42;100.00;96702.69;10400951;28;20045;-78
2021/11/29 04:30:53;;;;;;;31.48;19.98;;;;;;;0.50;100.00;96704.63;10376328;28;20053;-78
2021/11/29 04:35:57;;;;;;;32.22;21.02;;;;;;;0.53;100.00;96706.97;10359059;28;20042;-78
2021/11/29 04:41:01;;;;;;;31.08;20.65;;;;;;;0.60;100.00;96717.88;10382995;28;20045;-77
2021/11/29 04:46:04;;;;;;;31.27;20.15;;;;;;;0.65;100.00;96718.28;10397738;28;20044;-78
2021/11/29 04:51:08;;;;;;;32.05;20.55;;;;;;;0.66;100.00;96724.41;10397916;28;20054;-78
2021/11/29 04:56:13;;;;;;;33.67;20.67;;;;;;;0.63;100.00;96725.53;10392788;28;20029;-79
2021/11/29 05:01:16;;;;;;;30.75;20.17;;;;;;;0.68;100.00;96728.63;10373685;28;20101;-78
2021/11/29 05:06:20;;;;;;;35.17;19.85;;;;;;;0.65;100.00;96736.00;10395975;28;20033;-78
2021/11/29 05:11:24;;;;;;;32.83;20.83;;;;;;;0.68;100.00;96746.31;10389503;28;20046;-78
2021/11/29 05:16:27;;;;;;;32.70;20.50;;;;;;;0.69;100.00;96750.63;10393663;28;20125;-78
2021/11/29 05:21:31;;;;;;;32.95;20.25;;;;;;;0.67;100.00;96747.28;10403757;28;20040;-78
2021/11/29 05:26:35;;;;;;;32.50;21.00;;;;;;;0.70;100.00;96761.13;10399238;28;20045;-77
2021/11/29 05:31:38;;;;;;;35.60;20.85;;;;;;;0.73;100.00;96762.66;10407009;28;20042;-79
2021/11/29 05:36:41;;;;;;;31.55;20.20;;;;;;;0.69;100.00;96767.41;10399121;28;20068;-79
2021/11/29 05:41:47;;;;;;;35.75;20.35;;;;;;;0.69;100.00;96766.53;10387473;28;20049;-78
2021/11/29 05:46:50;;;;;;;35.00;20.75;;;;;;;0.69;100.00;96785.09;10396354;28;20554;-78
2021/11/29 05:51:55;;;;;;;35.80;21.17;;;;;;;0.64;100.00;96784.69;10389945;28;21363;-78
2021/11/29 05:57:04;;;;;;;32.53;19.98;;;;;;;0.70;100.00;96792.06;10427245;28;20052;-78
2021/11/29 06:02:07;;;;;;;30.88;20.20;;;;;;;0.72;100.00;96790.94;10407172;28;20079;-78
2021/11/29 06:07:10;;;;;;;31.13;19.25;;;;;;;0.72;100.00;96798.91;10397721;28;20057;-78
2021/11/29 06:12:15;;;;;;;34.83;19.95;;;;;;;0.72;100.00;96798.91;10384546;28;21290;-79
2021/11/29 06:17:18;;;;;;;29.73;19.20;;;;;;;0.73;100.00;96810.34;10399226;28;20126;-78
2021/11/29 06:22:21;;;;;;;32.45;18.85;;;;;;;0.75;100.00;96819.00;10401005;28;20468;-79
2021/11/29 06:27:25;;;;;;;31.33;19.58;;;;;;;0.73;100.00;96821.78;10395835;28;20081;-78
2021/11/29 06:32:28;;;;;;;28.88;17.95;;;;;;;0.77;100.00;96819.69;10392938;28;20047;-78
2021/11/29 06:37:32;;;;;;;25.02;16.20;;;;;;;0.78;100.00;96826.66;10375505;28;20051;-79
2021/11/29 06:42:36;;;;;;;25.38;16.45;;;;;;;0.91;100.00;96834.34;10399570;28;20042;-79
2021/11/29 06:47:41;;;;;;;24.23;16.17;;;;;;;0.92;100.00;96842.16;10401984;28;20073;-79
2021/11/29 06:52:44;;;;;;;29.40;17.40;;;;;;;0.97;100.00;96848.88;10404283;28;20042;-79
2021/11/29 06:57:49;;;;;;;29.40;17.13;;;;;;;1.00;100.00;96851.25;10387828;28;20051;-78
2021/11/29 07:02:54;;;;;;;26.20;15.73;;;;;;;1.03;100.00;96850.94;10398265;28;20037;-79
2021/11/29 07:07:57;;;;;;;26.88;16.42;;;;;;;1.02;100.00;96866.03;10398458;28;20149;-78
2021/11/29 07:13:02;;;;;;;25.35;16.50;;;;;;;0.98;100.00;96859.31;10393223;28;20124;-78
2021/11/29 07:18:05;;;;;;;22.58;14.05;;;;;;;1.07;100.00;96870.91;10392730;28;20113;-78
2021/11/29 07:23:08;;;;;;;26.75;14.18;;;;;;;0.99;100.00;96862.81;10396475;28;20406;-77
2021/11/29 07:28:13;;;;;;;23.33;13.60;;;;;;;1.05;100.00;96878.16;10373540;28;20160;-77
2021/11/29 07:33:16;;;;;;;23.38;14.48;;;;;;;1.07;100.00;96885.00;10377393;28;20336;-78
2021/11/29 07:38:19;;;;;;;21.75;14.07;;;;;;;1.06;100.00;96885.16;10397000;28;20359;-80
2021/11/29 07:43:23;;;;;;;22.98;14.27;;;;;;;1.02;100.00;96897.00;10389859;28;20461;-78
2021/11/29 07:48:27;;;;;;;25.42;13.55;;;;;;;0.99;100.00;96906.06;10401643;28;20055;-77
2021/11/29 07:53:30;;;;;;;22.33;13.68;;;;;;;1.02;100.00;96910.25;10398333;28;20045;-77
2021/11/29 07:58:34;;;;;;;21.58;13.82;;;;;;;1.01;100.00;96917.38;10391189;28;20037;-79
2021/11/29 08:03:37;;;;;;;21.27;13.75;;;;;;;0.98;100.00;96927.44;10400753;28;20045;-78
2021/11/29 08:08:43;;;;;;;21.63;14.38;;;;;;;1.02;100.00;96926.16;10401754;28;20140;-78
2021/11/29 08:13:47;;;;;;;23.75;15.40;;;;;;;1.07;100.00;96939.88;10399332;28;20048;-80
2021/11/29 08:18:50;;;;;;;23.17;14.05;;;;;;;1.10;100.00;96944.03;10402186;28;20041;-80
2021/11/29 08:24:13;;;;;;;18.63;10.88;;;;;;;0.97;100.00;96953.09;10401150;28;20041;-79
2021/11/29 08:29:17;;;;;;;16.88;10.27;;;;;;;1.05;100.00;96957.72;10401487;28;20036;-78
2021/11/29 08:34:47;;;;;;;15.93;10.57;;;;;;;1.06;100.00;96967.34;10397666;28;20052;-77
2021/11/29 08:39:50;;;;;;;14.55;9.10;;;;;;;1.05;100.00;96970.97;10395622;28;20085;-78
2021/11/29 08:44:54;;;;;;;14.85;8.65;;;;;;;1.12;100.00;96964.13;10394086;28;20139;-78
2021/11/29 08:49:57;;;;;;;14.98;7.65;;;;;;;1.07;100.00;96975.16;10391386;28;20046;-78
2021/11/29 08:55:19;;;;;;;13.55;7.63;;;;;;;1.10;100.00;96978.53;10398060;28;20045;-78
2021/11/29 09:00:23;;;;;;;13.43;8.00;;;;;;;1.15;100.00;96981.63;10406772;28;20042;-78
2021/11/29 09:05:26;;;;;;;13.13;7.00;;;;;;;1.22;100.00;96985.38;10403695;28;20429;-78
2021/11/29 09:10:30;;;;;;;10.90;7.07;;;;;;;1.17;100.00;97001.72;10406486;28;20037;-78
2021/11/29 09:15:34;;;;;;;11.57;7.20;;;;;;;1.13;100.00;96997.66;10386677;28;20045;-77
2021/11/29 09:20:39;;;;;;;12.43;7.10;;;;;;;1.13;100.00;97008.25;10398955;28;20437;-78
2021/11/29 09:25:44;;;;;;;15.70;7.85;;;;;;;1.13;100.00;97013.56;10392939;28;21358;-78
2021/11/29 09:30:48;;;;;;;15.32;7.93;;;;;;;1.19;100.00;97010.38;10400407;28;20123;-78
2021/11/29 09:35:51;;;;;;;12.45;7.85;;;;;;;1.14;100.00;97017.88;10404644;28;20104;-79
2021/11/29 09:40:55;;;;;;;11.68;6.80;;;;;;;1.19;100.00;97017.47;10395751;28;20041;-78
2021/11/29 09:45:59;;;;;;;13.73;6.75;;;;;;;1.15;100.00;97010.78;10398076;28;20049;-79
2021/11/29 09:51:02;;;;;;;14.18;7.50;;;;;;;1.19;100.00;97010.38;10393269;28;20050;-79
2021/11/29 09:56:07;;;;;;;9.27;6.35;;;;;;;1.19;100.00;97023.63;10387254;28;20049;-78
2021/11/29 10:01:12;;;;;;;9.75;5.80;;;;;;;1.15;100.00;97032.84;10398256;28;20117;-78
2021/11/29 10:06:34;;;;;;;8.93;6.40;;;;;;;1.11;100.00;97031.44;10398733;28;20050;-78
2021/11/29 10:11:39;;;;;;;12.48;6.38;;;;;;;1.10;100.00;97055.44;10400211;28;20051;-77
2021/11/29 10:16:45;;;;;;;10.93;7.57;;;;;;;1.09;100.00;97038.69;10394854;28;20964;-78
2021/11/29 10:21:49;;;;;;;8.55;5.93;;;;;;;1.09;100.00;97046.66;10402258;28;20077;-78
2021/11/29 10:26:53;;;;;;;9.43;6.35;;;;;;;1.06;100.00;97041.63;10399527;28;20043;-77
2021/11/29 10:31:59;;;;;;;10.30;6.35;;;;;;;1.11;100.00;97046.50;10398846;28;20462;-77
2021/11/29 10:37:06;;;;;;;9.13;6.13;;;;;;;1.09;100.00;97049.31;10387717;28;20417;-78
2021/11/29 10:42:12;;;;;;;9.93;6.18;;;;;;;1.09;100.00;97054.63;10395763;28;20037;-79
2021/11/29 10:47:19;;;;;;;7.53;5.63;;;;;;;1.08;100.00;97063.53;10396850;28;20057;-77
2021/11/29 10:52:24;;;;;;;10.50;5.97;;;;;;;1.14;100.00;97068.28;10381570;28;20056;-78
2021/11/29 10:57:29;;;;;;;6.85;5.20;;;;;;;1.10;100.00;97061.59;10395812;28;20132;-78
2021/11/29 11:02:35;;;;;;;8.70;6.20;;;;;;;1.09;100.00;97062.56;10401321;28;20046;-77
2021/11/29 11:07:41;;;;;;;7.90;5.60;;;;;;;1.13;100.00;97063.97;10401997;28;20045;-78
2021/11/29 11:12:47;;;;;;;9.88;6.10;;;;;;;1.11;100.00;97063.28;10440380;28;20044;-78
2021/11/29 11:17:54;;;;;;;7.57;5.85;;;;;;;1.10;100.00;97071.34;10395451;28;20054;-78
2021/11/29 11:22:58;;;;;;;9.45;6.00;;;;;;;1.03;100.00;97076.34;10394891;28;20088;-78
2021/11/29 11:28:05;;;;;;;8.02;5.93;;;;;;;1.04;100.00;97057.69;10390192;28;20056;-78
2021/11/29 11:33:16;;;;;;;9.23;6.10;;;;;;;1.11;100.00;97073.88;10375833;28;20058;-78
2021/11/29 11:38:23;;;;;;;8.32;5.10;;;;;;;1.15;100.00;97077.94;10392092;28;20049;-78
2021/11/29 11:43:32;;;;;;;7.45;5.20;;;;;;;1.17;100.00;97072.50;10388790;28;20050;-78
2021/11/29 11:48:37;;;;;;;6.80;4.20;;;;;;;1.22;100.00;97072.91;10366490;28;20485;-78
2021/11/29 11:53:40;;;;;;;7.80;5.00;;;;;;;1.28;100.00;97063.59;10383594;28;20034;-78
2021/11/29 11:58:50;;;;;;;8.25;4.53;;;;;;;1.30;100.00;97077.56;10356037;28;20521;-78
2021/11/29 12:03:55;;;;;;;8.55;5.35;;;;;;;1.32;100.00;97086.22;10355336;28;20050;-78
2021/11/29 12:09:00;;;;;;;8.07;5.03;;;;;;;1.28;100.00;97090.97;10388487;28;20067;-78
2021/11/29 12:14:11;;;;;;;7.88;5.05;;;;;;;1.20;100.00;97099.59;10382947;28;20060;-78
2021/11/29 12:19:33;;;;;;;9.38;5.45;;;;;;;1.19;100.00;97107.66;10378716;28;20124;-76
2021/11/29 12:24:41;;;;;;;8.15;5.45;;;;;;;1.17;100.00;97121.06;10378732;28;20042;-75
2021/11/29 12:29:51;;;;;;;12.93;5.60;;;;;;;1.15;100.00;97123.03;10380724;28;20045;-75
2021/11/29 12:35:08;;;;;;;10.50;5.47;;;;;;;1.17;100.00;97110.47;10398173;28;20073;-75
2021/11/29 12:40:16;;;;;;;7.60;5.20;;;;;;;1.20;100.00;97114.66;10391591;28;20107;-75
2021/11/29 12:45:22;;;;;;;11.48;5.30;;;;;;;1.21;100.00;97133.13;10385044;28;20117;-75
2021/11/29 12:50:37;;;;;;;8.55;5.18;;;;;;;1.17;100.00;97134.34;10388075;28;20044;-76
2021/11/29 12:55:42;;;;;;;9.45;5.97;;;;;;;1.19;100.00;97137.72;10387098;28;20064;-75
2021/11/29 13:00:47;;;;;;;10.40;5.78;;;;;;;1.17;100.00;97136.16;10392130;28;20143;-75
2021/11/29 13:05:55;;;;;;;8.43;6.13;;;;;;;1.14;100.00;97142.56;10389480;28;20575;-75
2021/11/29 13:11:03;;;;;;;11.38;6.40;;;;;;;1.13;100.00;97145.34;10389081;28;20054;-75
2021/11/29 13:16:08;;;;;;;8.38;6.00;;;;;;;1.14;100.00;97149.69;10375778;28;20092;-76
2021/11/29 13:21:14;;;;;;;12.15;6.15;;;;;;;1.13;100.00;97164.75;10384462;28;20041;-76
2021/11/29 13:26:24;;;;;;;12.02;6.78;;;;;;;1.12;100.00;97165.72;10386999;28;20048;-76
2021/11/29 13:31:29;;;;;;;10.68;6.13;;;;;;;1.11;100.00;97166.72;10385669;28;20673;-76
2021/11/29 13:36:36;;;;;;;9.23;6.45;;;;;;;1.11;100.00;97168.53;10387210;28;20053;-75
2021/11/29 13:41:40;;;;;;;8.32;5.90;;;;;;;1.08;100.00;97185.53;10395952;28;20049;-75
2021/11/29 13:46:58;;;;;;;10.60;6.20;;;;;;;1.08;100.00;97188.19;10425286;28;20026;-75
2021/11/29 13:52:05;;;;;;;9.23;5.88;;;;;;;1.06;100.00;97190.13;10403410;28;20048;-75
2021/11/29 13:57:08;;;;;;;9.35;6.03;;;;;;;1.03;100.00;97201.84;10380647;28;20053;-75
2021/11/29 14:02:15;;;;;;;7.85;5.47;;;;;;;1.02;100.00;97208.13;10386896;28;20121;-75
2021/11/29 14:07:20;;;;;;;9.25;6.50;;;;;;;1.03;100.00;97211.59;10389580;28;20038;-75
2021/11/29 14:12:29;;;;;;;8.68;5.82;;;;;;;1.00;100.00;97225.16;10381842;28;20051;-75
2021/11/29 14:17:35;;;;;;;9.02;6.30;;;;;;;0.99;100.00;97226.13;10383469;28;20076;-75
2021/11/29 14:22:49;;;;;;;9.13;6.93;;;;;;;0.97;100.00;97231.53;10381158;28;20522;-75
2021/11/29 14:27:53;;;;;;;11.68;7.10;;;;;;;0.97;100.00;97236.00;10385380;28;20509;-75
2021/11/29 14:32:58;;;;;;;10.13;6.80;;;;;;;0.96;100.00;97250.25;10398890;28;20152;-75
2021/11/29 14:38:02;;;;;;;8.45;6.85;;;;;;;0.93;100.00;97251.34;10386832;28;20050;-76
2021/11/29 14:43:05;;;;;;;8.88;6.80;;;;;;;0.96;100.00;97268.81;10389098;28;20053;-75
2021/11/29 14:48:17;;;;;;;11.00;6.80;;;;;;;0.93;100.00;97267.25;10395661;28;20080;-76
2021/11/29 14:53:24;;;;;;;9.23;6.35;;;;;;;0.90;100.00;97273.63;10389949;28;20805;-77
2021/11/29 14:58:29;;;;;;;8.70;6.32;;;;;;;0.90;100.00;97278.13;10388510;28;20046;-77
2021/11/29 15:03:34;;;;;;;9.55;6.80;;;;;;;0.88;100.00;97278.22;10389834;28;20044;-76
2021/11/29 15:08:39;;;;;;;7.70;6.47;;;;;;;0.88;100.00;97277.41;10386366;28;20041;-76
2021/11/29 15:13:54;;;;;;;9.13;6.88;;;;;;;0.86;100.00;97277.53;10574369;27;20131;-57
2021/11/29 15:19:14;;;;;;;8.48;5.93;;;;;;;0.85;100.00;97286.47;10554598;28;20476;-52
2021/11/29 15:24:28;;;;;;;6.60;5.57;;;;;;;0.86;100.00;97301.41;10559436;28;20052;-51
2021/11/29 15:29:37;;;;;;;8.57;5.80;;;;;;;0.87;100.00;97311.03;10556522;28;20046;-60
2021/11/29 15:34:40;;;;;;;8.70;6.38;;;;;;;0.86;100.00;97317.31;10560794;28;20560;-60
2021/11/29 15:39:43;;;;;;;9.35;5.82;;;;;;;0.89;100.00;97325.00;10562283;28;20048;-57
2021/11/29 15:44:49;;;;;;;7.20;5.75;;;;;;;0.87;100.00;97353.47;10548078;28;20615;-60
2021/11/29 15:50:21;;;;;;;9.00;5.50;;;;;;;0.93;100.00;97362.72;10538466;28;20461;-59
2021/11/29 15:55:25;;;;;;;8.38;5.85;;;;;;;0.94;100.00;97367.06;10577796;28;20040;-67
2021/11/29 16:00:29;;;;;;;7.20;5.35;;;;;;;0.94;100.00;97375.00;10583749;28;20028;-64
2021/11/29 16:05:32;;;;;;;7.32;5.22;;;;;;;0.90;100.00;97385.00;10560522;28;20463;-62
2021/11/29 16:10:42;;;;;;;7.45;5.63;;;;;;;0.90;100.00;97390.31;10559041;28;20156;-60
2021/11/29 16:15:47;;;;;;;6.88;5.75;;;;;;;0.89;100.00;97387.78;10548762;28;20119;-60
2021/11/29 16:20:51;;;;;;;9.15;6.40;;;;;;;0.87;100.00;97395.88;10553962;28;20063;-62
2021/11/29 16:25:56;;;;;;;11.50;6.80;;;;;;;0.84;100.00;97396.13;10520675;28;20090;-64
2021/11/29 16:31:01;;;;;;;9.77;6.95;;;;;;;0.82;100.00;97408.66;10510805;28;20496;-58
2021/11/29 16:36:05;;;;;;;7.63;6.30;;;;;;;0.77;100.00;97409.03;10511228;28;20052;-63
2021/11/29 16:41:08;;;;;;;10.00;7.07;;;;;;;0.77;100.00;97422.31;10512461;28;20745;-58
2021/11/29 16:46:14;;;;;;;8.23;5.90;;;;;;;0.78;100.00;97425.78;10506907;28;20109;-63
2021/11/29 16:51:17;;;;;;;8.98;6.50;;;;;;;0.76;100.00;97433.03;10516432;28;20028;-57
2021/11/29 16:56:20;;;;;;;9.40;6.63;;;;;;;0.78;100.00;97444.34;10517082;28;20501;-62
2021/11/29 17:01:27;;;;;;;8.00;6.45;;;;;;;0.74;100.00;97453.53;10509552;28;20058;-61
2021/11/29 17:06:35;;;;;;;8.95;7.13;;;;;;;0.75;100.00;97455.22;10509971;28;20044;-62
2021/11/29 17:11:39;;;;;;;11.32;7.13;;;;;;;0.75;100.00;97456.03;10514087;28;20056;-58
2021/11/29 17:16:50;;;;;;;11.40;7.20;;;;;;;0.74;100.00;97454.34;10507637;28;20511;-59
2021/11/29 17:21:53;;;;;;;10.82;7.03;;;;;;;0.75;100.00;97465.81;10519221;28;20048;-62
2021/11/29 17:26:56;;;;;;;10.48;7.30;;;;;;;0.77;100.00;97470.03;10516756;28;20135;-60
2021/11/29 17:32:00;;;;;;;11.88;7.78;;;;;;;0.76;100.00;97467.50;10492257;28;20397;-60
2021/11/29 17:37:05;;;;;;;10.13;7.45;;;;;;;0.74;100.00;97472.91;10490971;28;20075;-62
2021/11/29 17:42:08;;;;;;;11.43;8.50;;;;;;;0.75;100.00;97477.25;10494207;28;20143;-62
2021/11/29 17:47:13;;;;;;;9.95;7.47;;;;;;;0.72;100.00;97493.41;10479586;28;20072;-62
2021/11/29 17:52:17;;;;;;;9.63;7.97;;;;;;;0.73;100.00;97494.25;10475059;28;20044;-60
2021/11/29 17:57:20;;;;;;;11.07;8.10;;;;;;;0.76;100.00;97504.63;10461540;28;20517;-63
2021/11/29 18:02:24;;;;;;;12.15;7.93;;;;;;;0.76;100.00;97520.53;10451173;28;20501;-63
2021/11/29 18:07:31;;;;;;;10.95;8.60;;;;;;;0.75;100.00;97516.19;10456224;28;20128;-62
2021/11/29 18:12:36;;;;;;;11.88;8.18;;;;;;;0.72;100.00;97529.69;10469450;28;20075;-57
2021/11/29 18:17:41;;;;;;;10.10;7.57;;;;;;;0.70;100.00;97539.56;10469778;28;20389;-59
2021/11/29 18:22:46;;;;;;;10.40;8.20;;;;;;;0.70;100.00;97550.16;10468333;28;20056;-57
2021/11/29 18:27:50;;;;;;;9.60;7.53;;;;;;;0.72;100.00;97557.03;10459285;28;20116;-60
2021/11/29 18:32:56;;;;;;;10.35;7.07;;;;;;;0.72;100.00;97561.50;10466061;28;20050;-59
2021/11/29 18:37:59;;;;;;;9.45;7.60;;;;;;;0.72;100.00;97566.78;10469341;28;20115;-60
2021/11/29 18:43:04;;;;;;;8.95;7.40;;;;;;;0.72;100.00;97561.50;10467201;28;20140;-62
2021/11/29 18:48:10;;;;;;;10.07;7.43;;;;;;;0.70;100.00;97564.28;10473223;28;20045;-59
2021/11/29 18:53:13;;;;;;;10.82;6.93;;;;;;;0.71;100.00;97551.84;10483430;28;20489;-63
2021/11/29 18:58:17;;;;;;;10.95;7.38;;;;;;;0.68;100.00;97555.59;10470300;28;20409;-59
2021/11/29 19:03:23;;;;;;;9.70;6.95;;;;;;;0.69;100.00;97548.47;10483809;28;20040;-57
2021/11/29 19:08:26;;;;;;;8.68;7.47;;;;;;;0.73;100.00;97553.41;10482674;28;20107;-62
2021/11/29 19:13:29;;;;;;;9.15;6.80;;;;;;;0.75;100.00;97551.47;10484240;28;20156;-59
2021/11/29 19:18:34;;;;;;;8.93;6.95;;;;;;;0.84;100.00;97554.38;10483016;28;20147;-63
2021/11/29 19:23:39;;;;;;;8.18;5.88;;;;;;;0.91;100.00;97555.59;10487061;28;20048;-60
2021/11/29 19:28:42;;;;;;;7.57;5.47;;;;;;;0.92;100.00;97560.75;10480089;28;20147;-63
2021/11/29 19:33:47;;;;;;;7.18;5.38;;;;;;;0.87;100.00;97560.28;10488751;28;20190;-62
2021/11/29 19:38:50;;;;;;;6.80;5.10;;;;;;;0.85;100.00;97556.91;10466230;28;20071;-65
2021/11/29 19:43:54;;;;;;;5.00;4.45;;;;;;;0.85;100.00;97569.31;10446147;28;20542;-63
2021/11/29 19:48:58;;;;;;;6.75;4.60;;;;;;;0.81;100.00;97558.09;10454389;28;20457;-63
2021/11/29 19:54:03;;;;;;;5.95;5.03;;;;;;;0.79;100.00;97570.63;10460390;28;20060;-61
2021/11/29 19:59:08;;;;;;;7.38;5.40;;;;;;;0.75;100.00;97585.13;10465108;28;20486;-64
2021/11/29 20:04:13;;;;;;;7.38;5.40;;;;;;;0.74;100.00;97586.06;10463010;28;20047;-61
2021/11/29 20:09:17;;;;;;;7.30;5.40;;;;;;;0.73;100.00;97597.66;10469842;28;20064;-63
2021/11/29 20:14:21;;;;;;;7.20;5.97;;;;;;;0.72;100.00;97603.91;10475812;28;20654;-63
2021/11/29 20:19:28;;;;;;;10.38;6.90;;;;;;;0.75;100.00;97604.50;10473267;28;20068;-61
2021/11/29 20:24:31;;;;;;;7.88;6.40;;;;;;;0.81;100.00;97615.59;10472022;28;20127;-59
2021/11/29 20:29:34;;;;;;;8.65;5.85;;;;;;;0.75;100.00;97612.47;10480388;28;20413;-63
2021/11/29 20:34:38;;;;;;;9.00;5.93;;;;;;;0.77;100.00;97622.94;10478506;28;20048;-64
2021/11/29 20:39:41;;;;;;;8.15;6.22;;;;;;;0.80;100.00;97624.53;10477512;28;20448;-63
2021/11/29 20:44:45;;;;;;;7.50;5.72;;;;;;;0.76;100.00;97623.94;10477515;28;20124;-62
2021/11/29 20:49:49;;;;;;;7.25;5.80;;;;;;;0.71;100.00;97626.06;10482939;28;20515;-61
2021/11/29 20:54:53;;;;;;;9.63;6.47;;;;;;;0.69;100.00;97631.50;10480087;28;20117;-63
2021/11/29 20:59:56;;;;;;;8.48;6.47;;;;;;;0.74;100.00;97636.44;10475545;28;20052;-61
2021/11/29 21:05:02;;;;;;;9.32;6.80;;;;;;;0.78;100.00;97645.84;10481225;28;20139;-61
2021/11/29 21:10:05;;;;;;;8.77;6.72;;;;;;;0.74;100.00;97633.81;10484597;28;20160;-61
2021/11/29 21:15:09;;;;;;;9.30;7.10;;;;;;;0.77;100.00;97639.69;10487951;28;20044;-63
2021/11/29 21:20:13;;;;;;;8.85;6.50;;;;;;;0.78;100.00;97640.53;10496260;28;20064;-60
2021/11/29 21:25:16;;;;;;;8.68;6.68;;;;;;;0.75;100.00;97651.41;10489094;28;20155;-61
2021/11/29 21:30:20;;;;;;;9.30;6.47;;;;;;;0.72;100.00;97651.63;10477871;28;20045;-60
2021/11/29 21:35:26;;;;;;;8.85;6.47;;;;;;;0.74;100.00;97649.72;10452088;28;20029;-60
2021/11/29 21:40:29;;;;;;;9.88;6.82;;;;;;;0.72;100.00;97651.63;10458640;28;20064;-63
2021/11/29 21:45:33;;;;;;;8.10;6.20;;;;;;;0.72;100.00;97659.59;10455575;28;20068;-63
2021/11/29 21:50:37;;;;;;;8.82;6.50;;;;;;;0.71;100.00;97671.97;10459774;28;20040;-64
2021/11/29 21:55:40;;;;;;;6.55;5.03;;;;;;;0.72;100.00;97662.22;10460235;28;20044;-59
2021/11/29 22:00:43;;;;;;;7.97;6.10;;;;;;;0.74;100.00;97665.63;10462629;28;20051;-60
2021/11/29 22:05:48;;;;;;;7.10;5.75;;;;;;;0.74;100.00;97668.25;10462798;28;20037;-60
2021/11/29 22:10:51;;;;;;;7.35;5.57;;;;;;;0.75;100.00;97664.66;10472315;28;20135;-60
2021/11/29 22:15:54;;;;;;;7.93;5.72;;;;;;;0.74;100.00;97660.31;10466254;28;20116;-59
2021/11/29 22:20:58;;;;;;;8.30;5.88;;;;;;;0.74;100.00;97662.97;10484292;28;20120;-61
2021/11/29 22:26:02;;;;;;;8.77;6.30;;;;;;;0.74;100.00;97662.97;10508038;28;20021;-61
2021/11/29 22:31:05;;;;;;;9.38;6.28;;;;;;;0.79;100.00;97659.97;10536787;28;20065;-60
2021/11/29 22:36:10;;;;;;;8.77;6.28;;;;;;;0.84;100.00;97666.59;10504285;28;20056;-61
2021/11/29 22:41:13;;;;;;;8.23;6.70;;;;;;;0.76;100.00;97672.47;10470221;28;20448;-60
2021/11/29 22:46:16;;;;;;;9.60;7.10;;;;;;;0.81;100.00;97664.16;10473411;28;20049;-61
2021/11/29 22:51:21;;;;;;;10.98;7.20;;;;;;;0.77;100.00;97660.06;10475139;28;20045;-61
2021/11/29 22:56:24;;;;;;;10.63;7.70;;;;;;;0.76;100.00;97653.91;10479126;28;20441;-60
2021/11/29 23:01:30;;;;;;;12.77;7.70;;;;;;;0.74;100.00;97663.78;10479295;28;20048;-60
2021/11/29 23:06:35;;;;;;;11.68;7.72;;;;;;;0.79;100.00;97652.00;10479262;28;20098;-61
2021/11/29 23:11:41;;;;;;;9.88;7.25;;;;;;;0.82;100.00;97647.28;10479805;28;20714;-61
2021/11/29 23:16:46;;;;;;;10.80;8.07;;;;;;;0.78;100.00;97645.84;10479542;28;20144;-61
2021/11/29 23:21:53;;;;;;;11.20;8.15;;;;;;;0.77;100.00;97652.09;10469763;28;20126;-61